Hall, Louisiana
Current Conditions -  °F | °C
As of 7:15 PM on Friday 31 Oct 2014 (Local Time) from KIER Reporting Station
Clear Clear  
Wind Chill: 60°   Ceiling: Unl
Heat Index: 60°   Visibility: 10mi
Dew Point: 48°   Wind: 8mph
Humidity: 66%   Direction: 350°N
Pressure: 30.22"   Gusts: NA
Location:  31.6668°N, 92.8023°W
Report Text: KIER 010015Z AUTO 35007KT 10SM CLR 15/09 A3022 RMK AO2 T01530090
Loading
Personal Weather Stations






























Interactive Weather Map
Tropical Storm Tracking
New forecast layout! Learn more

10-Day Weather Forecast

Advertisements
Track Severe Weather on mobile